sensor_id;sensor_type;location;lat;lon;timestamp;P1;durP1;ratioP1;P2;durP2;ratioP2
36585;SDS011;22591;48.314;11.562;2023-05-07T00:01:15;6.57;;;5.70;;
36585;SDS011;22591;48.314;11.562;2023-05-07T00:03:40;6.25;;;5.75;;
36585;SDS011;22591;48.314;11.562;2023-05-07T00:06:06;7.35;;;5.35;;
36585;SDS011;22591;48.314;11.562;2023-05-07T00:08:32;5.22;;;4.82;;
36585;SDS011;22591;48.314;11.562;2023-05-07T00:10:57;4.45;;;4.20;;
36585;SDS011;22591;48.314;11.562;2023-05-07T00:13:23;6.07;;;4.85;;
36585;SDS011;22591;48.314;11.562;2023-05-07T00:15:48;5.18;;;4.78;;
36585;SDS011;22591;48.314;11.562;2023-05-07T00:18:14;5.70;;;5.30;;
36585;SDS011;22591;48.314;11.562;2023-05-07T00:20:39;7.38;;;5.95;;
36585;SDS011;22591;48.314;11.562;2023-05-07T00:23:05;7.00;;;6.40;;
36585;SDS011;22591;48.314;11.562;2023-05-07T00:25:30;4.90;;;4.57;;
36585;SDS011;22591;48.314;11.562;2023-05-07T00:27:56;5.05;;;4.75;;
36585;SDS011;22591;48.314;11.562;2023-05-07T00:30:27;5.55;;;5.10;;
36585;SDS011;22591;48.314;11.562;2023-05-07T00:32:53;5.32;;;4.82;;
36585;SDS011;22591;48.314;11.562;2023-05-07T00:35:19;6.18;;;5.65;;
36585;SDS011;22591;48.314;11.562;2023-05-07T00:37:44;5.57;;;5.18;;
36585;SDS011;22591;48.314;11.562;2023-05-07T00:40:10;6.07;;;5.57;;
36585;SDS011;22591;48.314;11.562;2023-05-07T00:42:36;5.40;;;5.05;;
36585;SDS011;22591;48.314;11.562;2023-05-07T00:45:02;5.47;;;5.03;;
36585;SDS011;22591;48.314;11.562;2023-05-07T00:47:28;5.90;;;5.45;;
36585;SDS011;22591;48.314;11.562;2023-05-07T00:49:53;5.57;;;5.28;;
36585;SDS011;22591;48.314;11.562;2023-05-07T00:52:19;5.53;;;5.13;;
36585;SDS011;22591;48.314;11.562;2023-05-07T00:54:48;5.38;;;4.97;;
36585;SDS011;22591;48.314;11.562;2023-05-07T00:57:14;5.25;;;4.95;;
36585;SDS011;22591;48.314;11.562;2023-05-07T00:59:40;5.40;;;5.10;;
36585;SDS011;22591;48.314;11.562;2023-05-07T01:02:06;5.32;;;5.03;;
36585;SDS011;22591;48.314;11.562;2023-05-07T01:04:32;5.43;;;4.90;;
36585;SDS011;22591;48.314;11.562;2023-05-07T01:06:58;7.40;;;5.53;;
36585;SDS011;22591;48.314;11.562;2023-05-07T01:09:26;5.82;;;5.32;;
36585;SDS011;22591;48.314;11.562;2023-05-07T01:11:53;7.13;;;6.63;;
36585;SDS011;22591;48.314;11.562;2023-05-07T01:14:22;6.70;;;6.30;;
36585;SDS011;22591;48.314;11.562;2023-05-07T01:16:48;6.75;;;6.13;;
36585;SDS011;22591;48.314;11.562;2023-05-07T01:19:16;6.55;;;6.05;;
36585;SDS011;22591;48.314;11.562;2023-05-07T01:21:45;7.47;;;6.88;;
36585;SDS011;22591;48.314;11.562;2023-05-07T01:24:13;8.23;;;7.57;;
36585;SDS011;22591;48.314;11.562;2023-05-07T01:26:39;9.70;;;7.53;;
36585;SDS011;22591;48.314;11.562;2023-05-07T01:29:06;6.88;;;6.38;;
36585;SDS011;22591;48.314;11.562;2023-05-07T01:31:32;8.90;;;7.78;;
36585;SDS011;22591;48.314;11.562;2023-05-07T01:33:59;8.30;;;7.53;;
36585;SDS011;22591;48.314;11.562;2023-05-07T01:36:27;7.60;;;7.00;;
36585;SDS011;22591;48.314;11.562;2023-05-07T01:38:55;7.38;;;6.72;;
36585;SDS011;22591;48.314;11.562;2023-05-07T01:41:22;8.35;;;7.20;;
36585;SDS011;22591;48.314;11.562;2023-05-07T01:43:48;7.68;;;7.00;;
36585;SDS011;22591;48.314;11.562;2023-05-07T01:46:16;8.20;;;7.50;;
36585;SDS011;22591;48.314;11.562;2023-05-07T01:48:42;7.55;;;6.93;;
36585;SDS011;22591;48.314;11.562;2023-05-07T01:51:10;6.47;;;5.95;;
36585;SDS011;22591;48.314;11.562;2023-05-07T01:53:37;8.15;;;7.40;;
36585;SDS011;22591;48.314;11.562;2023-05-07T01:56:03;7.50;;;6.60;;
36585;SDS011;22591;48.314;11.562;2023-05-07T01:58:29;10.40;;;7.38;;
36585;SDS011;22591;48.314;11.562;2023-05-07T02:00:55;8.13;;;7.40;;
36585;SDS011;22591;48.314;11.562;2023-05-07T02:03:21;11.32;;;8.27;;
36585;SDS011;22591;48.314;11.562;2023-05-07T02:05:46;8.48;;;7.47;;
36585;SDS011;22591;48.314;11.562;2023-05-07T02:08:12;8.07;;;7.47;;
36585;SDS011;22591;48.314;11.562;2023-05-07T02:10:37;8.02;;;7.13;;
36585;SDS011;22591;48.314;11.562;2023-05-07T02:13:03;7.47;;;6.97;;
36585;SDS011;22591;48.314;11.562;2023-05-07T02:15:28;7.78;;;7.18;;
36585;SDS011;22591;48.314;11.562;2023-05-07T02:18:00;11.23;;;7.05;;
36585;SDS011;22591;48.314;11.562;2023-05-07T02:20:27;9.48;;;8.68;;
36585;SDS011;22591;48.314;11.562;2023-05-07T02:22:53;9.65;;;8.90;;
36585;SDS011;22591;48.314;11.562;2023-05-07T02:25:19;8.55;;;7.85;;
36585;SDS011;22591;48.314;11.562;2023-05-07T02:27:44;8.20;;;7.57;;
36585;SDS011;22591;48.314;11.562;2023-05-07T02:30:10;8.82;;;7.93;;
36585;SDS011;22591;48.314;11.562;2023-05-07T02:32:35;7.82;;;7.22;;
36585;SDS011;22591;48.314;11.562;2023-05-07T02:35:01;8.32;;;7.75;;
36585;SDS011;22591;48.314;11.562;2023-05-07T02:37:27;7.70;;;7.10;;
36585;SDS011;22591;48.314;11.562;2023-05-07T02:39:52;8.30;;;7.70;;
36585;SDS011;22591;48.314;11.562;2023-05-07T02:42:18;9.40;;;8.65;;
36585;SDS011;22591;48.314;11.562;2023-05-07T02:44:43;8.75;;;8.05;;
36585;SDS011;22591;48.314;11.562;2023-05-07T02:47:09;9.73;;;8.98;;
36585;SDS011;22591;48.314;11.562;2023-05-07T02:49:35;9.20;;;8.50;;
36585;SDS011;22591;48.314;11.562;2023-05-07T02:52:00;9.35;;;8.65;;
36585;SDS011;22591;48.314;11.562;2023-05-07T02:54:26;11.68;;;9.90;;
36585;SDS011;22591;48.314;11.562;2023-05-07T02:56:51;9.35;;;8.38;;
36585;SDS011;22591;48.314;11.562;2023-05-07T02:59:17;9.80;;;8.90;;
36585;SDS011;22591;48.314;11.562;2023-05-07T03:01:42;9.50;;;8.30;;
36585;SDS011;22591;48.314;11.562;2023-05-07T03:04:10;10.48;;;9.57;;
36585;SDS011;22591;48.314;11.562;2023-05-07T03:06:36;11.35;;;10.20;;
36585;SDS011;22591;48.314;11.562;2023-05-07T03:09:01;10.75;;;9.80;;
36585;SDS011;22591;48.314;11.562;2023-05-07T03:11:28;10.43;;;9.52;;
36585;SDS011;22591;48.314;11.562;2023-05-07T03:13:53;9.88;;;8.98;;
36585;SDS011;22591;48.314;11.562;2023-05-07T03:16:19;10.05;;;9.23;;
36585;SDS011;22591;48.314;11.562;2023-05-07T03:18:44;9.18;;;8.38;;
36585;SDS011;22591;48.314;11.562;2023-05-07T03:21:10;8.88;;;8.07;;
36585;SDS011;22591;48.314;11.562;2023-05-07T03:23:35;10.13;;;9.20;;
36585;SDS011;22591;48.314;11.562;2023-05-07T03:26:01;9.18;;;8.27;;
36585;SDS011;22591;48.314;11.562;2023-05-07T03:28:27;8.88;;;8.18;;
36585;SDS011;22591;48.314;11.562;2023-05-07T03:30:52;8.07;;;7.45;;
36585;SDS011;22591;48.314;11.562;2023-05-07T03:33:18;8.27;;;7.65;;
36585;SDS011;22591;48.314;11.562;2023-05-07T03:35:43;13.38;;;8.75;;
36585;SDS011;22591;48.314;11.562;2023-05-07T03:38:09;8.93;;;8.20;;
36585;SDS011;22591;48.314;11.562;2023-05-07T03:40:34;8.48;;;7.78;;
36585;SDS011;22591;48.314;11.562;2023-05-07T03:43:00;7.65;;;7.15;;
36585;SDS011;22591;48.314;11.562;2023-05-07T03:45:26;7.63;;;7.03;;
36585;SDS011;22591;48.314;11.562;2023-05-07T03:47:51;8.48;;;7.05;;
36585;SDS011;22591;48.314;11.562;2023-05-07T03:50:17;8.35;;;7.75;;
36585;SDS011;22591;48.314;11.562;2023-05-07T03:52:42;9.25;;;8.45;;
36585;SDS011;22591;48.314;11.562;2023-05-07T03:55:08;10.05;;;9.05;;
36585;SDS011;22591;48.314;11.562;2023-05-07T03:57:34;9.70;;;8.80;;
36585;SDS011;22591;48.314;11.562;2023-05-07T04:00:00;12.52;;;9.55;;
36585;SDS011;22591;48.314;11.562;2023-05-07T04:02:25;10.35;;;9.35;;
36585;SDS011;22591;48.314;11.562;2023-05-07T04:04:51;13.52;;;9.98;;
36585;SDS011;22591;48.314;11.562;2023-05-07T04:07:17;11.02;;;10.07;;
36585;SDS011;22591;48.314;11.562;2023-05-07T04:09:42;8.90;;;8.20;;
36585;SDS011;22591;48.314;11.562;2023-05-07T04:12:08;8.13;;;7.53;;
36585;SDS011;22591;48.314;11.562;2023-05-07T04:14:33;10.73;;;9.60;;
36585;SDS011;22591;48.314;11.562;2023-05-07T04:16:59;10.35;;;9.45;;
36585;SDS011;22591;48.314;11.562;2023-05-07T04:19:24;10.68;;;9.77;;
36585;SDS011;22591;48.314;11.562;2023-05-07T04:21:50;10.38;;;9.38;;
36585;SDS011;22591;48.314;11.562;2023-05-07T04:24:16;8.63;;;8.02;;
36585;SDS011;22591;48.314;11.562;2023-05-07T04:26:41;8.32;;;7.57;;
36585;SDS011;22591;48.314;11.562;2023-05-07T04:29:07;8.45;;;7.82;;
36585;SDS011;22591;48.314;11.562;2023-05-07T04:31:32;8.45;;;7.72;;
36585;SDS011;22591;48.314;11.562;2023-05-07T04:33:58;10.70;;;9.75;;
36585;SDS011;22591;48.314;11.562;2023-05-07T04:36:23;9.43;;;8.63;;
36585;SDS011;22591;48.314;11.562;2023-05-07T04:38:52;8.55;;;7.85;;
36585;SDS011;22591;48.314;11.562;2023-05-07T04:41:18;7.63;;;7.03;;
36585;SDS011;22591;48.314;11.562;2023-05-07T04:43:44;7.20;;;6.50;;
36585;SDS011;22591;48.314;11.562;2023-05-07T04:46:09;10.50;;;6.38;;
36585;SDS011;22591;48.314;11.562;2023-05-07T04:48:35;5.80;;;5.40;;
36585;SDS011;22591;48.314;11.562;2023-05-07T04:51:01;7.95;;;7.22;;
36585;SDS011;22591;48.314;11.562;2023-05-07T04:53:26;7.57;;;6.95;;
36585;SDS011;22591;48.314;11.562;2023-05-07T04:55:58;7.68;;;7.18;;
36585;SDS011;22591;48.314;11.562;2023-05-07T04:58:24;7.22;;;6.63;;
36585;SDS011;22591;48.314;11.562;2023-05-07T05:00:49;6.30;;;5.90;;
36585;SDS011;22591;48.314;11.562;2023-05-07T05:03:15;9.60;;;8.00;;
36585;SDS011;22591;48.314;11.562;2023-05-07T05:05:41;6.38;;;5.78;;
36585;SDS011;22591;48.314;11.562;2023-05-07T05:08:06;6.57;;;6.07;;
36585;SDS011;22591;48.314;11.562;2023-05-07T05:10:32;8.60;;;7.15;;
36585;SDS011;22591;48.314;11.562;2023-05-07T05:12:57;7.57;;;7.07;;
36585;SDS011;22591;48.314;11.562;2023-05-07T05:15:23;7.22;;;6.72;;
36585;SDS011;22591;48.314;11.562;2023-05-07T05:17:48;7.20;;;6.60;;
36585;SDS011;22591;48.314;11.562;2023-05-07T05:20:14;7.03;;;6.53;;
36585;SDS011;22591;48.314;11.562;2023-05-07T05:22:40;8.18;;;7.57;;
36585;SDS011;22591;48.314;11.562;2023-05-07T05:25:07;8.70;;;8.00;;
36585;SDS011;22591;48.314;11.562;2023-05-07T05:27:32;8.23;;;6.95;;
36585;SDS011;22591;48.314;11.562;2023-05-07T05:29:58;8.45;;;7.78;;
36585;SDS011;22591;48.314;11.562;2023-05-07T05:32:24;7.72;;;7.00;;
36585;SDS011;22591;48.314;11.562;2023-05-07T05:34:50;9.13;;;8.23;;
36585;SDS011;22591;48.314;11.562;2023-05-07T05:37:16;8.20;;;7.60;;
36585;SDS011;22591;48.314;11.562;2023-05-07T05:39:41;8.70;;;8.00;;
36585;SDS011;22591;48.314;11.562;2023-05-07T05:42:07;7.00;;;6.60;;
36585;SDS011;22591;48.314;11.562;2023-05-07T05:44:33;7.90;;;7.40;;
36585;SDS011;22591;48.314;11.562;2023-05-07T05:46:58;9.20;;;8.50;;
36585;SDS011;22591;48.314;11.562;2023-05-07T05:49:24;7.97;;;7.50;;
36585;SDS011;22591;48.314;11.562;2023-05-07T05:51:50;9.65;;;8.80;;
36585;SDS011;22591;48.314;11.562;2023-05-07T05:54:15;9.77;;;8.88;;
36585;SDS011;22591;48.314;11.562;2023-05-07T05:56:41;9.23;;;8.63;;
36585;SDS011;22591;48.314;11.562;2023-05-07T05:59:07;8.45;;;7.95;;
36585;SDS011;22591;48.314;11.562;2023-05-07T06:01:33;8.65;;;7.90;;
36585;SDS011;22591;48.314;11.562;2023-05-07T06:03:58;8.55;;;7.25;;
36585;SDS011;22591;48.314;11.562;2023-05-07T06:06:24;7.93;;;7.43;;
36585;SDS011;22591;48.314;11.562;2023-05-07T06:08:49;8.75;;;8.05;;
36585;SDS011;22591;48.314;11.562;2023-05-07T06:11:15;9.23;;;8.50;;
36585;SDS011;22591;48.314;11.562;2023-05-07T06:13:40;8.00;;;7.40;;
36585;SDS011;22591;48.314;11.562;2023-05-07T06:16:06;8.25;;;7.70;;
36585;SDS011;22591;48.314;11.562;2023-05-07T06:18:32;9.00;;;8.27;;
36585;SDS011;22591;48.314;11.562;2023-05-07T06:20:57;9.82;;;8.95;;
36585;SDS011;22591;48.314;11.562;2023-05-07T06:23:23;9.10;;;8.50;;
36585;SDS011;22591;48.314;11.562;2023-05-07T06:25:49;8.82;;;8.13;;
36585;SDS011;22591;48.314;11.562;2023-05-07T06:28:15;8.57;;;7.97;;
36585;SDS011;22591;48.314;11.562;2023-05-07T06:30:41;9.00;;;8.30;;
36585;SDS011;22591;48.314;11.562;2023-05-07T06:33:06;8.85;;;8.05;;
36585;SDS011;22591;48.314;11.562;2023-05-07T06:35:32;8.20;;;7.65;;
36585;SDS011;22591;48.314;11.562;2023-05-07T06:37:57;9.15;;;8.00;;
36585;SDS011;22591;48.314;11.562;2023-05-07T06:40:24;10.45;;;7.47;;
36585;SDS011;22591;48.314;11.562;2023-05-07T06:42:50;7.63;;;7.13;;
36585;SDS011;22591;48.314;11.562;2023-05-07T06:45:15;8.35;;;7.63;;
36585;SDS011;22591;48.314;11.562;2023-05-07T06:47:41;9.48;;;8.15;;
36585;SDS011;22591;48.314;11.562;2023-05-07T06:50:07;10.02;;;9.23;;
36585;SDS011;22591;48.314;11.562;2023-05-07T06:52:33;9.57;;;8.82;;
36585;SDS011;22591;48.314;11.562;2023-05-07T06:54:59;9.43;;;8.73;;
36585;SDS011;22591;48.314;11.562;2023-05-07T06:57:24;8.32;;;7.70;;
36585;SDS011;22591;48.314;11.562;2023-05-07T06:59:50;9.55;;;8.77;;
36585;SDS011;22591;48.314;11.562;2023-05-07T07:02:16;8.63;;;7.93;;
36585;SDS011;22591;48.314;11.562;2023-05-07T07:04:41;8.73;;;7.95;;
36585;SDS011;22591;48.314;11.562;2023-05-07T07:07:07;8.38;;;7.72;;
36585;SDS011;22591;48.314;11.562;2023-05-07T07:09:32;9.80;;;8.77;;
36585;SDS011;22591;48.314;11.562;2023-05-07T07:11:58;9.35;;;8.60;;
36585;SDS011;22591;48.314;11.562;2023-05-07T07:14:24;8.82;;;8.18;;
36585;SDS011;22591;48.314;11.562;2023-05-07T07:16:49;7.88;;;7.35;;
36585;SDS011;22591;48.314;11.562;2023-05-07T07:19:15;8.85;;;8.15;;
36585;SDS011;22591;48.314;11.562;2023-05-07T07:21:41;8.05;;;7.55;;
36585;SDS011;22591;48.314;11.562;2023-05-07T07:24:07;9.45;;;8.85;;
36585;SDS011;22591;48.314;11.562;2023-05-07T07:26:32;10.13;;;9.38;;
36585;SDS011;22591;48.314;11.562;2023-05-07T07:28:58;10.43;;;9.68;;
36585;SDS011;22591;48.314;11.562;2023-05-07T07:31:23;10.25;;;9.35;;
36585;SDS011;22591;48.314;11.562;2023-05-07T07:33:49;10.10;;;9.23;;
36585;SDS011;22591;48.314;11.562;2023-05-07T07:36:15;10.13;;;9.32;;
36585;SDS011;22591;48.314;11.562;2023-05-07T07:38:40;10.90;;;9.88;;
36585;SDS011;22591;48.314;11.562;2023-05-07T07:41:07;10.48;;;9.48;;
36585;SDS011;22591;48.314;11.562;2023-05-07T07:43:34;10.23;;;9.40;;
36585;SDS011;22591;48.314;11.562;2023-05-07T07:46:00;9.30;;;8.60;;
36585;SDS011;22591;48.314;11.562;2023-05-07T07:48:26;9.30;;;8.40;;
36585;SDS011;22591;48.314;11.562;2023-05-07T07:50:51;9.02;;;8.30;;
36585;SDS011;22591;48.314;11.562;2023-05-07T07:53:17;9.73;;;8.95;;
36585;SDS011;22591;48.314;11.562;2023-05-07T07:55:43;8.80;;;8.10;;
36585;SDS011;22591;48.314;11.562;2023-05-07T07:58:09;8.35;;;7.40;;
36585;SDS011;22591;48.314;11.562;2023-05-07T08:00:34;9.85;;;9.20;;
36585;SDS011;22591;48.314;11.562;2023-05-07T08:03:00;9.13;;;8.45;;
36585;SDS011;22591;48.314;11.562;2023-05-07T08:05:26;8.95;;;8.13;;
36585;SDS011;22591;48.314;11.562;2023-05-07T08:07:51;9.05;;;8.32;;
36585;SDS011;22591;48.314;11.562;2023-05-07T08:10:18;9.55;;;8.80;;
36585;SDS011;22591;48.314;11.562;2023-05-07T08:12:50;8.63;;;7.93;;
36585;SDS011;22591;48.314;11.562;2023-05-07T08:15:16;9.20;;;8.35;;
36585;SDS011;22591;48.314;11.562;2023-05-07T08:17:41;10.07;;;8.63;;
36585;SDS011;22591;48.314;11.562;2023-05-07T08:20:07;7.15;;;6.65;;
36585;SDS011;22591;48.314;11.562;2023-05-07T08:22:34;7.15;;;6.65;;
36585;SDS011;22591;48.314;11.562;2023-05-07T08:25:00;7.88;;;7.43;;
36585;SDS011;22591;48.314;11.562;2023-05-07T08:27:26;8.93;;;8.00;;
36585;SDS011;22591;48.314;11.562;2023-05-07T08:29:51;8.45;;;7.60;;
36585;SDS011;22591;48.314;11.562;2023-05-07T08:32:17;7.95;;;7.25;;
36585;SDS011;22591;48.314;11.562;2023-05-07T08:34:43;10.35;;;9.35;;
36585;SDS011;22591;48.314;11.562;2023-05-07T08:37:08;10.75;;;9.02;;
36585;SDS011;22591;48.314;11.562;2023-05-07T08:39:34;8.73;;;8.10;;
36585;SDS011;22591;48.314;11.562;2023-05-07T08:42:00;8.65;;;7.95;;
36585;SDS011;22591;48.314;11.562;2023-05-07T08:44:29;9.27;;;8.35;;
36585;SDS011;22591;48.314;11.562;2023-05-07T08:46:59;8.25;;;7.65;;
36585;SDS011;22591;48.314;11.562;2023-05-07T08:49:27;8.57;;;8.07;;
36585;SDS011;22591;48.314;11.562;2023-05-07T08:51:53;8.73;;;8.13;;
36585;SDS011;22591;48.314;11.562;2023-05-07T08:54:18;8.82;;;8.02;;
36585;SDS011;22591;48.314;11.562;2023-05-07T08:56:45;8.38;;;7.78;;
36585;SDS011;22591;48.314;11.562;2023-05-07T08:59:11;7.95;;;7.35;;
36585;SDS011;22591;48.314;11.562;2023-05-07T09:01:37;8.75;;;8.02;;
36585;SDS011;22591;48.314;11.562;2023-05-07T09:04:03;8.75;;;8.15;;
36585;SDS011;22591;48.314;11.562;2023-05-07T09:06:30;9.00;;;8.25;;
36585;SDS011;22591;48.314;11.562;2023-05-07T09:08:56;6.30;;;5.82;;
36585;SDS011;22591;48.314;11.562;2023-05-07T09:11:23;8.15;;;7.55;;
36585;SDS011;22591;48.314;11.562;2023-05-07T09:13:56;8.38;;;7.72;;
36585;SDS011;22591;48.314;11.562;2023-05-07T09:16:26;7.73;;;7.13;;
36585;SDS011;22591;48.314;11.562;2023-05-07T09:18:53;7.97;;;7.13;;
36585;SDS011;22591;48.314;11.562;2023-05-07T09:21:20;8.68;;;5.78;;
36585;SDS011;22591;48.314;11.562;2023-05-07T09:23:48;7.95;;;7.35;;
36585;SDS011;22591;48.314;11.562;2023-05-07T09:26:15;9.00;;;8.32;;
36585;SDS011;22591;48.314;11.562;2023-05-07T09:28:41;9.88;;;9.00;;
36585;SDS011;22591;48.314;11.562;2023-05-07T09:31:10;7.57;;;7.00;;
36585;SDS011;22591;48.314;11.562;2023-05-07T09:33:37;7.43;;;6.93;;
36585;SDS011;22591;48.314;11.562;2023-05-07T09:36:03;6.53;;;6.00;;
36585;SDS011;22591;48.314;11.562;2023-05-07T09:38:33;6.80;;;6.35;;
36585;SDS011;22591;48.314;11.562;2023-05-07T09:41:09;7.78;;;6.65;;
36585;SDS011;22591;48.314;11.562;2023-05-07T09:43:38;5.35;;;4.85;;
36585;SDS011;22591;48.314;11.562;2023-05-07T09:46:14;5.43;;;5.03;;
36585;SDS011;22591;48.314;11.562;2023-05-07T09:48:42;5.45;;;5.15;;
36585;SDS011;22591;48.314;11.562;2023-05-07T09:51:21;5.47;;;4.70;;
36585;SDS011;22591;48.314;11.562;2023-05-07T09:53:53;4.30;;;3.90;;
36585;SDS011;22591;48.314;11.562;2023-05-07T09:56:19;4.10;;;2.78;;
36585;SDS011;22591;48.314;11.562;2023-05-07T09:58:46;3.58;;;3.28;;
36585;SDS011;22591;48.314;11.562;2023-05-07T10:01:11;3.20;;;3.00;;
36585;SDS011;22591;48.314;11.562;2023-05-07T10:03:39;3.42;;;3.22;;
36585;SDS011;22591;48.314;11.562;2023-05-07T10:06:06;3.85;;;3.53;;
36585;SDS011;22591;48.314;11.562;2023-05-07T10:08:34;3.25;;;2.83;;
36585;SDS011;22591;48.314;11.562;2023-05-07T10:11:01;3.05;;;2.83;;
36585;SDS011;22591;48.314;11.562;2023-05-07T10:13:28;2.55;;;2.35;;
36585;SDS011;22591;48.314;11.562;2023-05-07T10:15:54;2.80;;;2.63;;
36585;SDS011;22591;48.314;11.562;2023-05-07T10:18:21;2.78;;;2.65;;
36585;SDS011;22591;48.314;11.562;2023-05-07T10:20:54;3.20;;;3.00;;
36585;SDS011;22591;48.314;11.562;2023-05-07T10:23:44;2.13;;;1.95;;
36585;SDS011;22591;48.314;11.562;2023-05-07T10:26:13;2.17;;;2.08;;
36585;SDS011;22591;48.314;11.562;2023-05-07T10:28:41;2.35;;;2.25;;
36585;SDS011;22591;48.314;11.562;2023-05-07T10:33:48;1.75;;;1.65;;
36585;SDS011;22591;48.314;11.562;2023-05-07T10:36:17;1.85;;;1.75;;
36585;SDS011;22591;48.314;11.562;2023-05-07T10:38:44;2.38;;;2.17;;
36585;SDS011;22591;48.314;11.562;2023-05-07T10:41:11;2.38;;;2.17;;
36585;SDS011;22591;48.314;11.562;2023-05-07T10:43:40;1.27;;;1.23;;
36585;SDS011;22591;48.314;11.562;2023-05-07T10:51:31;2.20;;;2.10;;
36585;SDS011;22591;48.314;11.562;2023-05-07T10:56:39;2.30;;;2.20;;
36585;SDS011;22591;48.314;11.562;2023-05-07T11:01:49;2.80;;;2.58;;
36585;SDS011;22591;48.314;11.562;2023-05-07T11:04:19;3.15;;;2.95;;
36585;SDS011;22591;48.314;11.562;2023-05-07T11:12:15;2.60;;;2.50;;
36585;SDS011;22591;48.314;11.562;2023-05-07T11:17:07;2.60;;;2.42;;
36585;SDS011;22591;48.314;11.562;2023-05-07T11:19:50;2.30;;;2.05;;
36585;SDS011;22591;48.314;11.562;2023-05-07T11:25:04;3.00;;;2.78;;
36585;SDS011;22591;48.314;11.562;2023-05-07T11:27:31;2.40;;;2.30;;
36585;SDS011;22591;48.314;11.562;2023-05-07T11:29:56;2.03;;;1.77;;
36585;SDS011;22591;48.314;11.562;2023-05-07T11:32:23;3.92;;;1.80;;
36585;SDS011;22591;48.314;11.562;2023-05-07T11:34:53;2.22;;;2.03;;
36585;SDS011;22591;48.314;11.562;2023-05-07T11:37:23;2.97;;;2.60;;
36585;SDS011;22591;48.314;11.562;2023-05-07T11:39:49;2.50;;;2.30;;
36585;SDS011;22591;48.314;11.562;2023-05-07T11:42:29;2.88;;;2.67;;
36585;SDS011;22591;48.314;11.562;2023-05-07T11:44:59;2.15;;;1.98;;
36585;SDS011;22591;48.314;11.562;2023-05-07T11:47:25;2.72;;;2.55;;
36585;SDS011;22591;48.314;11.562;2023-05-07T11:49:54;2.67;;;2.38;;
36585;SDS011;22591;48.314;11.562;2023-05-07T11:52:21;2.10;;;1.95;;
36585;SDS011;22591;48.314;11.562;2023-05-07T11:54:48;3.95;;;2.33;;
36585;SDS011;22591;48.314;11.562;2023-05-07T11:57:17;2.67;;;2.47;;
36585;SDS011;22591;48.314;11.562;2023-05-07T11:59:43;2.17;;;1.98;;
36585;SDS011;22591;48.314;11.562;2023-05-07T12:02:09;2.33;;;2.20;;
36585;SDS011;22591;48.314;11.562;2023-05-07T12:04:35;1.83;;;1.67;;
36585;SDS011;22591;48.314;11.562;2023-05-07T12:07:02;2.10;;;2.00;;
36585;SDS011;22591;48.314;11.562;2023-05-07T12:09:28;2.38;;;1.73;;
36585;SDS011;22591;48.314;11.562;2023-05-07T12:11:54;1.65;;;1.55;;
36585;SDS011;22591;48.314;11.562;2023-05-07T12:14:21;2.15;;;2.00;;
36585;SDS011;22591;48.314;11.562;2023-05-07T12:16:46;4.45;;;2.40;;
36585;SDS011;22591;48.314;11.562;2023-05-07T12:19:12;2.53;;;2.42;;
36585;SDS011;22591;48.314;11.562;2023-05-07T12:21:39;2.65;;;2.45;;
36585;SDS011;22591;48.314;11.562;2023-05-07T12:24:05;3.03;;;2.80;;
36585;SDS011;22591;48.314;11.562;2023-05-07T12:26:31;3.08;;;2.22;;
36585;SDS011;22591;48.314;11.562;2023-05-07T12:28:57;2.55;;;2.35;;
36585;SDS011;22591;48.314;11.562;2023-05-07T12:31:25;3.97;;;2.85;;
36585;SDS011;22591;48.314;11.562;2023-05-07T12:33:51;2.45;;;2.33;;
36585;SDS011;22591;48.314;11.562;2023-05-07T12:36:17;2.67;;;2.58;;
36585;SDS011;22591;48.314;11.562;2023-05-07T12:38:43;3.28;;;3.08;;
36585;SDS011;22591;48.314;11.562;2023-05-07T12:41:09;2.80;;;2.40;;
36585;SDS011;22591;48.314;11.562;2023-05-07T12:43:37;2.17;;;2.08;;
36585;SDS011;22591;48.314;11.562;2023-05-07T12:46:04;2.58;;;2.38;;
36585;SDS011;22591;48.314;11.562;2023-05-07T12:48:31;2.45;;;2.30;;
36585;SDS011;22591;48.314;11.562;2023-05-07T12:50:57;1.90;;;1.80;;
36585;SDS011;22591;48.314;11.562;2023-05-07T12:53:24;2.70;;;2.50;;
36585;SDS011;22591;48.314;11.562;2023-05-07T12:55:52;2.33;;;2.22;;
36585;SDS011;22591;48.314;11.562;2023-05-07T12:58:30;2.83;;;2.63;;
36585;SDS011;22591;48.314;11.562;2023-05-07T13:00:58;4.15;;;2.30;;
36585;SDS011;22591;48.314;11.562;2023-05-07T13:03:26;2.00;;;1.90;;
36585;SDS011;22591;48.314;11.562;2023-05-07T13:05:57;2.10;;;1.90;;
36585;SDS011;22591;48.314;11.562;2023-05-07T13:08:25;2.40;;;2.30;;
36585;SDS011;22591;48.314;11.562;2023-05-07T13:10:56;2.13;;;2.03;;
36585;SDS011;22591;48.314;11.562;2023-05-07T13:13:23;2.30;;;2.20;;
36585;SDS011;22591;48.314;11.562;2023-05-07T13:15:50;2.55;;;1.83;;
36585;SDS011;22591;48.314;11.562;2023-05-07T13:18:15;2.65;;;2.28;;
36585;SDS011;22591;48.314;11.562;2023-05-07T13:20:41;2.40;;;2.20;;
36585;SDS011;22591;48.314;11.562;2023-05-07T13:23:06;2.20;;;2.10;;
36585;SDS011;22591;48.314;11.562;2023-05-07T13:25:32;2.17;;;2.08;;
36585;SDS011;22591;48.314;11.562;2023-05-07T13:27:57;2.72;;;1.70;;
36585;SDS011;22591;48.314;11.562;2023-05-07T13:30:23;2.60;;;2.40;;
36585;SDS011;22591;48.314;11.562;2023-05-07T13:32:48;1.88;;;1.77;;
36585;SDS011;22591;48.314;11.562;2023-05-07T13:35:15;2.65;;;1.70;;
36585;SDS011;22591;48.314;11.562;2023-05-07T13:37:41;1.73;;;1.63;;
36585;SDS011;22591;48.314;11.562;2023-05-07T13:40:07;1.65;;;1.55;;
36585;SDS011;22591;48.314;11.562;2023-05-07T13:42:33;1.58;;;1.48;;
36585;SDS011;22591;48.314;11.562;2023-05-07T13:44:58;1.63;;;1.45;;
36585;SDS011;22591;48.314;11.562;2023-05-07T13:47:24;1.42;;;1.40;;
36585;SDS011;22591;48.314;11.562;2023-05-07T13:49:50;2.25;;;1.90;;
36585;SDS011;22591;48.314;11.562;2023-05-07T13:52:16;1.58;;;1.40;;
36585;SDS011;22591;48.314;11.562;2023-05-07T13:54:41;1.70;;;1.60;;
36585;SDS011;22591;48.314;11.562;2023-05-07T13:57:07;1.75;;;1.65;;
36585;SDS011;22591;48.314;11.562;2023-05-07T13:59:33;1.73;;;1.40;;
36585;SDS011;22591;48.314;11.562;2023-05-07T14:01:59;2.13;;;1.55;;
36585;SDS011;22591;48.314;11.562;2023-05-07T14:04:25;1.63;;;1.52;;
36585;SDS011;22591;48.314;11.562;2023-05-07T14:06:50;4.32;;;1.88;;
36585;SDS011;22591;48.314;11.562;2023-05-07T14:09:16;2.30;;;1.52;;
36585;SDS011;22591;48.314;11.562;2023-05-07T14:11:42;1.50;;;1.40;;
36585;SDS011;22591;48.314;11.562;2023-05-07T14:14:08;1.60;;;1.50;;
36585;SDS011;22591;48.314;11.562;2023-05-07T14:16:35;2.50;;;1.67;;
36585;SDS011;22591;48.314;11.562;2023-05-07T14:19:02;1.77;;;1.23;;
36585;SDS011;22591;48.314;11.562;2023-05-07T14:21:27;1.40;;;1.27;;
36585;SDS011;22591;48.314;11.562;2023-05-07T14:23:53;1.60;;;1.50;;
36585;SDS011;22591;48.314;11.562;2023-05-07T14:26:19;1.52;;;1.42;;
36585;SDS011;22591;48.314;11.562;2023-05-07T14:28:45;1.65;;;1.50;;
36585;SDS011;22591;48.314;11.562;2023-05-07T14:31:12;1.50;;;1.40;;
36585;SDS011;22591;48.314;11.562;2023-05-07T14:33:38;1.40;;;1.30;;
36585;SDS011;22591;48.314;11.562;2023-05-07T14:36:03;1.70;;;1.60;;
36585;SDS011;22591;48.314;11.562;2023-05-07T14:38:29;1.50;;;1.30;;
36585;SDS011;22591;48.314;11.562;2023-05-07T14:40:57;1.55;;;1.45;;
36585;SDS011;22591;48.314;11.562;2023-05-07T14:43:23;2.42;;;1.48;;
36585;SDS011;22591;48.314;11.562;2023-05-07T14:45:49;1.58;;;1.48;;
36585;SDS011;22591;48.314;11.562;2023-05-07T14:48:14;1.60;;;1.50;;
36585;SDS011;22591;48.314;11.562;2023-05-07T14:50:41;1.67;;;1.58;;
36585;SDS011;22591;48.314;11.562;2023-05-07T14:53:06;1.40;;;1.30;;